Terminal Aerodrome Forecast
Issued by NWS Riverton, WY

Home | Current Version | Previous Version | Text Only | Print | Product List | Glossary On
Versions: 1 2 3 4 5 6 7 8 9 10 11 12 13 14
000
FTUS45 KRIW 232020 AAB
TAFRIW
TAF AMD
KRIW 232020Z 2320/2418 02020G30KT P6SM VCSH OVC030
     FM240600 01010KT P6SM BKN040
     FM241600 VRB05KT P6SM SCT050=

USA.gov is the U.S. government's official web portal to all federal, state and local government web resources and services.